Time,TemperatureF,DewpointF,PressureIn,WindDirection,WindDirectionDegrees,WindSpeedMPH,WindSpeedGustMPH,Humidity,HourlyPrecipIn,Conditions,Clouds,dailyrainin,SoftwareType,DateUTC
2014-01-14 00:01:00,34.9,27.8,29.70,NNE,19,7.0,20.0,75,0.00,,OVC,0.00,WeatherDisplay:10.37,2014-01-14 05:01:00,
2014-01-14 00:11:00,34.3,26.9,29.71,NNE,27,6.0,17.0,74,0.00,,OVC,0.00,WeatherDisplay:10.37,2014-01-14 05:11:00,
2014-01-14 00:21:00,33.7,26.3,29.70,NE,49,7.0,15.0,74,0.00,,OVC,0.00,WeatherDisplay:10.37,2014-01-14 05:21:00,
2014-01-14 00:31:00,33.4,26.3,29.71,NE,37,7.0,12.0,75,0.00,,OVC,0.00,WeatherDisplay:10.37,2014-01-14 05:31:00,
2014-01-14 00:41:00,32.9,25.8,29.71,NNE,23,5.0,12.0,75,0.00,,OVC,0.00,WeatherDisplay:10.37,2014-01-14 05:41:00,
2014-01-14 00:51:00,32.5,25.8,29.71,NE,44,7.0,12.0,76,0.00,,OVC,0.00,WeatherDisplay:10.37,2014-01-14 05:51:00,
2014-01-14 01:01:00,32.2,25.5,29.72,NNE,21,9.0,13.0,76,0.00,,OVC,0.00,WeatherDisplay:10.37,2014-01-14 06:01:00,
2014-01-14 01:11:00,32.2,26.1,29.71,North,6,12.0,13.0,78,0.00,,OVC,0.00,WeatherDisplay:10.37,2014-01-14 06:11:00,
2014-01-14 01:21:00,32.0,26.2,29.72,NNE,33,10.0,15.0,79,0.00,,OVC,0.00,WeatherDisplay:10.37,2014-01-14 06:21:00,
2014-01-14 01:31:00,31.6,26.2,29.72,NNE,28,16.0,20.0,80,0.00,,OVC,0.00,WeatherDisplay:10.37,2014-01-14 06:31:00,
2014-01-14 01:41:00,31.1,26.0,29.72,NNE,23,7.0,13.0,81,0.00,,OVC,0.00,WeatherDisplay:10.37,2014-01-14 06:41:00,
2014-01-14 01:51:00,30.6,25.4,29.73,NNE,21,10.0,13.0,81,0.00,,OVC,0.00,WeatherDisplay:10.37,2014-01-14 06:51:00,
2014-01-14 02:01:00,30.4,25.5,29.73,NNE,28,5.0,12.0,82,0.00,,OVC,0.00,WeatherDisplay:10.37,2014-01-14 07:01:00,
2014-01-14 02:11:00,29.8,25.6,29.72,NNE,19,2.0,12.0,84,0.00,,OVC,0.00,WeatherDisplay:10.37,2014-01-14 07:11:00,
2014-01-14 02:21:00,29.3,25.1,29.72,NE,42,0.0,7.0,84,0.00,,OVC,0.00,WeatherDisplay:10.37,2014-01-14 07:21:00,
2014-01-14 02:31:00,28.3,23.2,29.72,NNE,31,2.0,3.0,81,0.00,,OVC,0.00,WeatherDisplay:10.37,2014-01-14 07:31:00,
2014-01-14 02:41:00,27.9,22.8,29.73,North,0,0.0,5.0,81,0.00,,OVC,0.00,WeatherDisplay:10.37,2014-01-14 07:41:00,
2014-01-14 02:51:00,27.0,22.0,29.73,North,0,0.0,3.0,81,0.00,,OVC,0.00,WeatherDisplay:10.37,2014-01-14 07:51:00,
2014-01-14 03:01:00,26.8,21.7,29.73,North,0,0.0,1.0,81,0.00,,OVC,0.00,WeatherDisplay:10.37,2014-01-14 08:01:00,
2014-01-14 03:11:00,27.0,22.5,29.74,NNE,17,2.0,3.0,83,0.00,,OVC,0.00,WeatherDisplay:10.37,2014-01-14 08:11:00,
2014-01-14 03:21:00,27.0,22.8,29.74,North,0,2.0,7.0,84,0.00,,OVC,0.00,WeatherDisplay:10.37,2014-01-14 08:21:00,
2014-01-14 03:31:00,27.0,22.8,29.74,North,352,2.0,5.0,84,0.00,,OVC,0.00,WeatherDisplay:10.37,2014-01-14 08:31:00,
2014-01-14 03:41:00,27.0,23.1,29.74,North,4,3.0,8.0,85,0.00,,OVC,0.00,WeatherDisplay:10.37,2014-01-14 08:41:00,
2014-01-14 03:51:00,27.1,23.5,29.74,NNE,18,3.0,9.0,86,0.00,,OVC,0.00,WeatherDisplay:10.37,2014-01-14 08:51:00,
2014-01-14 04:01:00,26.8,23.2,29.74,North,360,2.0,7.0,86,0.00,,OVC,0.00,WeatherDisplay:10.37,2014-01-14 09:01:00,
2014-01-14 04:11:00,26.6,23.0,29.74,NW,318,2.0,7.0,86,0.00,,OVC,0.00,WeatherDisplay:10.37,2014-01-14 09:11:00,
2014-01-14 04:21:00,26.2,22.9,29.74,NNW,343,2.0,5.0,87,0.00,,OVC,0.00,WeatherDisplay:10.37,2014-01-14 09:21:00,
2014-01-14 04:31:00,26.4,23.3,29.74,North,3,2.0,7.0,88,0.00,,OVC,0.00,WeatherDisplay:10.37,2014-01-14 09:31:00,
2014-01-14 04:41:00,26.1,23.0,29.73,NNW,347,1.0,5.0,88,0.00,,OVC,0.00,WeatherDisplay:10.37,2014-01-14 09:41:00,
2014-01-14 04:51:00,25.9,22.8,29.74,NW,322,5.0,5.0,88,0.00,,OVC,0.00,WeatherDisplay:10.37,2014-01-14 09:51:00,
2014-01-14 05:01:00,25.9,22.8,29.72,NNW,329,2.0,7.0,88,0.00,,OVC,0.00,WeatherDisplay:10.37,2014-01-14 10:01:00,
2014-01-14 05:11:00,25.8,22.8,29.73,NW,324,2.0,5.0,88,0.00,,OVC,0.00,WeatherDisplay:10.37,2014-01-14 10:11:00,
2014-01-14 05:21:00,25.9,22.8,29.73,NNW,347,3.0,8.0,88,0.00,,OVC,0.00,WeatherDisplay:10.37,2014-01-14 10:21:00,
2014-01-14 05:31:00,25.5,22.5,29.72,NW,310,6.0,7.0,88,0.00,,OVC,0.00,WeatherDisplay:10.37,2014-01-14 10:31:00,
2014-01-14 05:41:00,25.6,22.8,29.72,NW,316,7.0,9.0,89,0.00,,OVC,0.00,WeatherDisplay:10.37,2014-01-14 10:41:00,
2014-01-14 05:51:00,25.7,23.0,29.72,NW,325,5.0,9.0,89,0.00,,OVC,0.00,WeatherDisplay:10.37,2014-01-14 10:51:00,
2014-01-14 06:01:00,25.7,22.9,29.72,NW,320,6.0,8.0,89,0.00,,OVC,0.00,WeatherDisplay:10.37,2014-01-14 11:01:00,
2014-01-14 06:11:00,25.7,22.9,29.72,NW,311,5.0,9.0,89,0.00,,OVC,0.00,WeatherDisplay:10.37,2014-01-14 11:11:00,
2014-01-14 06:21:00,25.7,22.9,29.72,NW,310,8.0,9.0,89,0.00,,OVC,0.00,WeatherDisplay:10.37,2014-01-14 11:21:00,
2014-01-14 06:31:00,25.5,22.7,29.72,NW,306,8.0,9.0,89,0.00,,OVC,0.00,WeatherDisplay:10.37,2014-01-14 11:31:00,
2014-01-14 06:41:00,25.5,22.7,29.72,NW,316,9.0,9.0,89,0.00,,OVC,0.00,WeatherDisplay:10.37,2014-01-14 11:41:00,
2014-01-14 06:51:00,25.3,22.3,29.72,WNW,301,7.0,9.0,88,0.00,,OVC,0.00,WeatherDisplay:10.37,2014-01-14 11:51:00,
2014-01-14 07:01:00,25.3,22.3,29.71,WNW,295,9.0,9.0,88,0.00,,OVC,0.00,WeatherDisplay:10.37,2014-01-14 12:01:00,
2014-01-14 07:11:00,25.3,22.3,29.71,NW,315,6.0,9.0,88,0.00,,OVC,0.00,WeatherDisplay:10.37,2014-01-14 12:11:00,
2014-01-14 07:21:00,25.2,22.1,29.71,NW,319,2.0,9.0,88,0.00,,OVC,0.00,WeatherDisplay:10.37,2014-01-14 12:21:00,
2014-01-14 07:31:00,25.0,21.9,29.71,NW,315,3.0,7.0,88,0.00,,OVC,0.00,WeatherDisplay:10.37,2014-01-14 12:31:00,
2014-01-14 07:41:00,25.2,22.1,29.71,WNW,299,8.0,15.0,88,0.00,,OVC,0.00,WeatherDisplay:10.37,2014-01-14 12:41:00,
2014-01-14 07:51:00,25.2,22.1,29.71,NW,308,5.0,9.0,88,0.00,,OVC,0.00,WeatherDisplay:10.37,2014-01-14 12:51:00,
2014-01-14 08:01:00,25.0,21.9,29.71,NW,310,8.0,12.0,88,0.00,,OVC,0.00,WeatherDisplay:10.37,2014-01-14 13:01:00,
2014-01-14 08:11:00,25.3,22.3,29.71,NW,306,8.0,13.0,88,0.00,,OVC,0.00,WeatherDisplay:10.37,2014-01-14 13:11:00,
2014-01-14 08:21:00,25.7,22.6,29.71,WNW,292,6.0,15.0,88,0.00,,OVC,0.00,WeatherDisplay:10.37,2014-01-14 13:21:00,
2014-01-14 08:31:00,25.6,22.5,29.71,West,268,7.0,12.0,88,0.00,,OVC,0.00,WeatherDisplay:10.37,2014-01-14 13:31:00,
2014-01-14 08:41:00,26.2,23.2,29.71,WNW,290,8.0,13.0,88,0.00,,OVC,0.00,WeatherDisplay:10.37,2014-01-14 13:41:00,
2014-01-14 08:51:00,26.8,23.4,29.70,West,279,14.0,23.0,87,0.00,,OVC,0.00,WeatherDisplay:10.37,2014-01-14 13:51:00,
2014-01-14 09:01:00,28.4,26.1,29.69,West,271,14.0,23.0,91,0.00,,OVC,0.00,WeatherDisplay:10.37,2014-01-14 14:01:00,
2014-01-14 09:11:00,29.7,26.6,29.70,NW,313,12.0,20.0,88,0.00,,OVC,0.00,WeatherDisplay:10.37,2014-01-14 14:11:00,
2014-01-14 09:21:00,30.7,26.2,29.69,West,268,10.0,16.0,83,0.00,,OVC,0.00,WeatherDisplay:10.37,2014-01-14 14:21:00,
2014-01-14 09:31:00,31.8,26.0,29.70,West,278,14.0,20.0,79,0.00,,OVC,0.00,WeatherDisplay:10.37,2014-01-14 14:31:00,
2014-01-14 09:41:00,32.0,25.0,29.71,WNW,296,13.0,25.0,75,0.00,,OVC,0.00,WeatherDisplay:10.37,2014-01-14 14:41:00,
2014-01-14 09:51:00,32.5,25.5,29.71,NW,315,16.0,21.0,75,0.00,,OVC,0.00,WeatherDisplay:10.37,2014-01-14 14:51:00,
2014-01-14 10:01:00,33.1,25.7,29.71,WNW,293,21.0,21.0,74,0.00,,OVC,0.00,WeatherDisplay:10.37,2014-01-14 15:01:00,
2014-01-14 10:11:00,33.8,26.1,29.70,WNW,288,15.0,21.0,73,0.00,,OVC,0.00,WeatherDisplay:10.37,2014-01-14 15:11:00,
2014-01-14 10:21:00,33.8,25.7,29.71,NW,312,21.0,24.0,72,0.00,,OVC,0.00,WeatherDisplay:10.37,2014-01-14 15:21:00,
2014-01-14 10:31:00,34.9,26.8,29.71,WNW,299,14.0,25.0,72,0.00,,OVC,0.00,WeatherDisplay:10.37,2014-01-14 15:31:00,
2014-01-14 10:41:00,34.0,25.9,29.70,WNW,289,16.0,25.0,72,0.00,,OVC,0.00,WeatherDisplay:10.37,2014-01-14 15:41:00,
2014-01-14 10:51:00,34.3,26.6,29.69,WNW,284,14.0,25.0,73,0.00,,OVC,0.00,WeatherDisplay:10.37,2014-01-14 15:51:00,
2014-01-14 11:01:00,34.9,26.8,29.69,WNW,288,17.0,29.0,72,0.00,,OVC,0.00,WeatherDisplay:10.37,2014-01-14 16:01:00,
2014-01-14 11:11:00,35.0,26.9,29.68,West,270,18.0,28.0,72,0.00,,OVC,0.00,WeatherDisplay:10.37,2014-01-14 16:11:00,
2014-01-14 11:21:00,36.0,26.1,29.69,WNW,300,15.0,25.0,67,0.00,,OVC,0.00,WeatherDisplay:10.37,2014-01-14 16:21:00,
2014-01-14 11:31:00,35.9,25.3,29.68,WNW,293,18.0,25.0,65,0.00,,OVC,0.00,WeatherDisplay:10.37,2014-01-14 16:31:00,
2014-01-14 11:41:00,36.3,24.9,29.68,WNW,296,21.0,31.0,63,0.00,,OVC,0.00,WeatherDisplay:10.37,2014-01-14 16:41:00,
2014-01-14 11:51:00,35.9,24.1,29.68,NW,309,29.0,29.0,62,0.00,,OVC,0.00,WeatherDisplay:10.37,2014-01-14 16:51:00,
2014-01-14 12:01:00,35.4,24.1,29.68,WNW,296,25.0,32.0,63,0.00,,OVC,0.00,WeatherDisplay:10.37,2014-01-14 17:01:00,
2014-01-14 12:11:00,35.6,23.5,29.66,WNW,290,20.0,36.0,61,0.00,,OVC,0.00,WeatherDisplay:10.37,2014-01-14 17:11:00,
2014-01-14 12:21:00,36.2,23.2,29.66,NW,307,31.0,39.0,59,0.00,,OVC,0.00,WeatherDisplay:10.37,2014-01-14 17:21:00,
2014-01-14 12:31:00,36.5,23.5,29.65,NW,315,21.0,39.0,59,0.00,,OVC,0.00,WeatherDisplay:10.37,2014-01-14 17:31:00,
2014-01-14 12:41:00,36.5,23.1,29.65,WNW,295,28.0,36.0,58,0.00,,OVC,0.00,WeatherDisplay:10.37,2014-01-14 17:41:00,
2014-01-14 12:51:00,36.4,23.0,29.64,WNW,289,17.0,37.0,58,0.00,,OVC,0.00,WeatherDisplay:10.37,2014-01-14 17:51:00,
2014-01-14 13:01:00,37.2,22.9,29.62,WNW,302,23.0,28.0,56,0.00,,OVC,0.00,WeatherDisplay:10.37,2014-01-14 18:01:00,
2014-01-14 13:11:00,37.4,24.0,29.62,WNW,294,24.0,37.0,58,0.00,,OVC,0.00,WeatherDisplay:10.37,2014-01-14 18:11:00,
2014-01-14 13:21:00,37.6,23.7,29.62,NW,310,35.0,37.0,57,0.00,,OVC,0.00,WeatherDisplay:10.37,2014-01-14 18:21:00,
2014-01-14 13:31:00,38.1,23.8,29.61,NW,317,35.0,37.0,56,0.00,,OVC,0.00,WeatherDisplay:10.37,2014-01-14 18:31:00,
2014-01-14 13:41:00,38.8,24.5,29.61,NW,310,23.0,37.0,56,0.00,,OVC,0.00,WeatherDisplay:10.37,2014-01-14 18:41:00,
2014-01-14 13:51:00,38.8,24.0,29.61,NW,310,25.0,41.0,55,0.00,,OVC,0.00,WeatherDisplay:10.37,2014-01-14 18:51:00,
2014-01-14 14:01:00,38.5,24.1,29.61,NW,312,20.0,40.0,56,0.00,,OVC,0.00,WeatherDisplay:10.37,2014-01-14 19:01:00,
2014-01-14 14:11:00,38.1,24.2,29.62,NW,311,21.0,25.0,57,0.00,,OVC,0.00,WeatherDisplay:10.37,2014-01-14 19:11:00,
2014-01-14 14:21:00,37.9,24.0,29.62,NNW,329,13.0,44.0,57,0.00,,OVC,0.00,WeatherDisplay:10.37,2014-01-14 19:21:00,
2014-01-14 14:31:00,37.9,24.0,29.62,NNW,345,10.0,29.0,57,0.00,,OVC,0.00,WeatherDisplay:10.37,2014-01-14 19:31:00,
2014-01-14 14:41:00,37.9,25.3,29.62,NW,325,18.0,32.0,60,0.00,,OVC,0.00,WeatherDisplay:10.37,2014-01-14 19:41:00,
2014-01-14 14:51:00,37.2,25.8,29.63,NNW,330,9.0,25.0,63,0.00,,OVC,0.00,WeatherDisplay:10.37,2014-01-14 19:51:00,
2014-01-14 15:01:00,35.9,27.8,29.63,NNW,346,16.0,37.0,72,0.00,,OVC,0.00,WeatherDisplay:10.37,2014-01-14 20:01:00,
2014-01-14 15:11:00,35.1,29.5,29.62,North,353,8.0,24.0,80,0.00,,OVC,0.00,WeatherDisplay:10.37,2014-01-14 20:11:00,
2014-01-14 15:21:00,34.9,29.9,29.63,WNW,284,16.0,16.0,82,0.00,,OVC,0.00,WeatherDisplay:10.37,2014-01-14 20:21:00,
2014-01-14 15:31:00,34.5,31.0,29.63,WNW,298,5.0,17.0,87,0.00,,OVC,0.00,WeatherDisplay:10.37,2014-01-14 20:31:00,
2014-01-14 15:41:00,34.7,31.8,29.63,NNW,338,8.0,17.0,89,0.00,,OVC,0.00,WeatherDisplay:10.37,2014-01-14 20:41:00,
2014-01-14 15:51:00,34.5,31.9,29.63,NNW,338,10.0,23.0,90,0.00,,OVC,0.00,WeatherDisplay:10.37,2014-01-14 20:51:00,
2014-01-14 16:01:00,34.4,32.0,29.64,NNW,329,9.0,21.0,91,0.00,,OVC,0.00,WeatherDisplay:10.37,2014-01-14 21:01:00,
2014-01-14 16:11:00,34.5,32.4,29.64,NW,323,10.0,24.0,92,0.00,,OVC,0.00,WeatherDisplay:10.37,2014-01-14 21:11:00,
2014-01-14 16:21:00,34.7,32.6,29.64,North,360,15.0,20.0,92,0.00,,OVC,0.00,WeatherDisplay:10.37,2014-01-14 21:21:00,
2014-01-14 16:31:00,34.9,32.8,29.65,North,10,8.0,28.0,92,0.00,,OVC,0.00,WeatherDisplay:10.37,2014-01-14 21:31:00,
2014-01-14 16:41:00,34.9,32.8,29.65,North,352,23.0,28.0,92,0.00,,OVC,0.00,WeatherDisplay:10.37,2014-01-14 21:41:00,
2014-01-14 16:51:00,35.2,32.0,29.65,NNE,20,15.0,37.0,88,0.00,,OVC,0.00,WeatherDisplay:10.37,2014-01-14 21:51:00,
2014-01-14 17:01:00,35.2,31.2,29.66,North,6,21.0,28.0,85,0.00,,OVC,0.00,WeatherDisplay:10.37,2014-01-14 22:01:00,
2014-01-14 17:11:00,35.1,28.6,29.66,North,357,21.0,28.0,77,0.00,,OVC,0.00,WeatherDisplay:10.37,2014-01-14 22:11:00,
2014-01-14 17:21:00,34.7,25.2,29.67,NNE,18,14.0,33.0,68,0.00,,OVC,0.00,WeatherDisplay:10.37,2014-01-14 22:21:00,
2014-01-14 17:31:00,34.3,24.2,29.67,North,3,23.0,33.0,66,0.00,,OVC,0.00,WeatherDisplay:10.37,2014-01-14 22:31:00,
2014-01-14 17:41:00,34.2,24.0,29.68,NNE,29,20.0,32.0,66,0.00,,OVC,0.00,WeatherDisplay:10.37,2014-01-14 22:41:00,
2014-01-14 17:51:00,33.6,23.1,29.69,NNE,20,23.0,40.0,65,0.00,,OVC,0.00,WeatherDisplay:10.37,2014-01-14 22:51:00,
2014-01-14 18:01:00,33.1,21.8,29.70,NE,37,22.0,39.0,63,0.00,,OVC,0.00,WeatherDisplay:10.37,2014-01-14 23:01:00,
2014-01-14 18:11:00,32.8,21.5,29.70,NE,45,18.0,40.0,63,0.00,,OVC,0.00,WeatherDisplay:10.37,2014-01-14 23:11:00,
2014-01-14 18:21:00,32.5,21.3,29.71,NE,45,22.0,39.0,63,0.00,,OVC,0.00,WeatherDisplay:10.37,2014-01-14 23:21:00,
2014-01-14 18:31:00,32.5,21.0,29.71,NE,45,17.0,36.0,62,0.00,,OVC,0.00,WeatherDisplay:10.37,2014-01-14 23:31:00,
2014-01-14 18:41:00,32.4,21.2,29.71,NE,45,30.0,33.0,63,0.00,,OVC,0.00,WeatherDisplay:10.37,2014-01-14 23:41:00,
2014-01-14 18:51:00,32.4,21.2,29.71,NE,45,18.0,33.0,63,0.00,,OVC,0.00,WeatherDisplay:10.37,2014-01-14 23:51:00,
2014-01-14 19:01:00,32.2,21.4,29.72,NE,45,12.0,28.0,64,0.00,,OVC,0.00,WeatherDisplay:10.37,2014-01-15 00:01:00,
2014-01-14 19:11:00,32.0,20.8,29.72,NE,45,25.0,40.0,63,0.00,,OVC,0.00,WeatherDisplay:10.37,2014-01-15 00:11:00,
2014-01-14 19:21:00,31.8,20.6,29.73,NE,45,21.0,39.0,63,0.00,,OVC,0.00,WeatherDisplay:10.37,2014-01-15 00:21:00,
2014-01-14 19:31:00,31.8,21.0,29.73,NE,45,10.0,28.0,64,0.00,,OVC,0.00,WeatherDisplay:10.37,2014-01-15 00:31:00,
2014-01-14 19:41:00,31.5,20.7,29.73,NE,45,13.0,31.0,64,0.00,,OVC,0.00,WeatherDisplay:10.37,2014-01-15 00:41:00,
2014-01-14 19:51:00,30.9,19.0,29.74,NE,45,32.0,44.0,61,0.00,,OVC,0.00,WeatherDisplay:10.37,2014-01-15 00:51:00,
2014-01-14 20:01:00,30.6,18.7,29.74,NE,45,30.0,47.0,61,0.00,,OVC,0.00,WeatherDisplay:10.37,2014-01-15 01:01:00,
2014-01-14 20:11:00,30.4,17.4,29.75,NE,45,31.0,44.0,58,0.00,,OVC,0.00,WeatherDisplay:10.37,2014-01-15 01:11:00,
2014-01-14 20:21:00,30.0,17.4,29.74,NE,45,10.0,48.0,59,0.00,,OVC,0.00,WeatherDisplay:10.37,2014-01-15 01:21:00,
2014-01-14 20:31:00,29.8,16.8,29.75,NE,45,29.0,40.0,58,0.00,,OVC,0.00,WeatherDisplay:10.37,2014-01-15 01:31:00,
2014-01-14 20:41:00,29.7,17.1,29.75,NE,45,21.0,44.0,59,0.00,,OVC,0.00,WeatherDisplay:10.37,2014-01-15 01:41:00,
2014-01-14 20:51:00,29.5,17.3,29.75,NE,45,28.0,39.0,60,0.00,,OVC,0.00,WeatherDisplay:10.37,2014-01-15 01:51:00,
2014-01-14 21:01:00,29.1,17.3,29.75,NE,45,28.0,48.0,61,0.00,,OVC,0.00,WeatherDisplay:10.37,2014-01-15 02:01:00,
2014-01-14 21:11:00,28.8,15.8,29.76,NE,45,44.0,45.0,58,0.00,,OVC,0.00,WeatherDisplay:10.37,2014-01-15 02:11:00,
2014-01-14 21:21:00,28.6,15.3,29.76,NE,45,37.0,45.0,57,0.00,,OVC,0.00,WeatherDisplay:10.37,2014-01-15 02:21:00,
2014-01-14 21:31:00,28.4,14.7,29.76,NE,45,21.0,41.0,56,0.00,,OVC,0.00,WeatherDisplay:10.37,2014-01-15 02:31:00,
2014-01-14 21:41:00,28.2,12.8,29.76,NE,45,15.0,31.0,52,0.00,,OVC,0.00,WeatherDisplay:10.37,2014-01-15 02:41:00,
2014-01-14 21:51:00,28.0,13.5,29.76,NE,45,17.0,45.0,54,0.00,,OVC,0.00,WeatherDisplay:10.37,2014-01-15 02:51:00,
2014-01-14 22:01:00,27.9,13.3,29.75,NE,45,22.0,44.0,54,0.00,,OVC,0.00,WeatherDisplay:10.37,2014-01-15 03:01:00,
2014-01-14 22:11:00,27.9,13.3,29.76,NE,45,23.0,31.0,54,0.00,,OVC,0.00,WeatherDisplay:10.37,2014-01-15 03:11:00,
2014-01-14 22:21:00,27.7,13.2,29.76,NE,45,22.0,33.0,54,0.00,,OVC,0.00,WeatherDisplay:10.37,2014-01-15 03:21:00,
2014-01-14 22:31:00,27.5,13.4,29.78,NE,45,12.0,40.0,55,0.00,,OVC,0.00,WeatherDisplay:10.37,2014-01-15 03:31:00,
2014-01-14 22:41:00,27.3,13.7,29.77,NE,45,24.0,31.0,56,0.00,,OVC,0.00,WeatherDisplay:10.37,2014-01-15 03:41:00,
2014-01-14 22:51:00,27.1,13.9,29.77,NE,45,21.0,29.0,57,0.00,,OVC,0.00,WeatherDisplay:10.37,2014-01-15 03:51:00,
2014-01-14 23:01:00,27.0,13.7,29.77,NE,45,18.0,29.0,57,0.00,,OVC,0.00,WeatherDisplay:10.37,2014-01-15 04:01:00,
2014-01-14 23:11:00,26.8,13.2,29.77,NE,45,36.0,44.0,56,0.00,,OVC,0.00,WeatherDisplay:10.37,2014-01-15 04:11:00,
2014-01-14 23:21:00,26.6,13.4,29.77,NE,45,25.0,40.0,57,0.00,,OVC,0.00,WeatherDisplay:10.37,2014-01-15 04:21:00,
2014-01-14 23:31:00,26.4,14.0,29.77,NE,45,10.0,37.0,59,0.00,,OVC,0.00,WeatherDisplay:10.37,2014-01-15 04:31:00,
2014-01-14 23:41:00,26.2,14.6,29.77,NE,45,28.0,33.0,61,0.00,,OVC,0.00,WeatherDisplay:10.37,2014-01-15 04:41:00,
2014-01-14 23:51:00,26.1,14.8,29.77,NE,45,9.0,29.0,62,0.00,,OVC,0.00,WeatherDisplay:10.37,2014-01-15 04:51:00,